createdAt,value
2023-03-12T00:01:56.884Z,6.30
2023-03-12T00:04:29.969Z,6.70
2023-03-12T00:06:58.567Z,7.15
2023-03-12T00:09:29.793Z,7.95
2023-03-12T00:12:00.540Z,6.35
2023-03-12T00:14:31.087Z,9.08
2023-03-12T00:16:59.991Z,5.90
2023-03-12T00:19:29.390Z,7.08
2023-03-12T00:21:59.309Z,7.10
2023-03-12T00:24:28.154Z,5.92
2023-03-12T00:26:56.877Z,7.45
2023-03-12T00:29:26.182Z,6.53
2023-03-12T00:31:55.462Z,7.30
2023-03-12T00:34:24.880Z,7.42
2023-03-12T00:36:54.076Z,7.78
2023-03-12T00:39:23.784Z,7.53
2023-03-12T00:41:53.212Z,8.08
2023-03-12T00:44:23.601Z,7.22
2023-03-12T00:46:53.647Z,7.30
2023-03-12T00:49:23.543Z,6.47
2023-03-12T00:51:53.853Z,6.67
2023-03-12T00:54:23.604Z,6.15
2023-03-12T00:56:53.670Z,7.00
2023-03-12T00:59:23.426Z,6.72
2023-03-12T01:01:52.630Z,7.60
2023-03-12T01:04:23.545Z,7.87
2023-03-12T01:06:53.346Z,5.50
2023-03-12T01:09:23.574Z,5.83
2023-03-12T01:11:54.691Z,5.12
2023-03-12T01:14:24.669Z,4.87
2023-03-12T01:16:54.046Z,4.03
2023-03-12T01:19:23.875Z,2.62
2023-03-12T01:21:54.698Z,1.82
2023-03-12T01:24:24.038Z,2.80
2023-03-12T01:26:53.874Z,1.47
2023-03-12T01:29:22.791Z,1.27
2023-03-12T01:31:52.135Z,1.82
2023-03-12T01:34:21.117Z,1.40
2023-03-12T01:36:50.666Z,1.47
2023-03-12T01:39:19.463Z,1.10
2023-03-12T01:41:48.297Z,1.12
2023-03-12T01:44:19.074Z,0.80
2023-03-12T01:46:48.638Z,0.98
2023-03-12T01:49:29.772Z,0.62
2023-03-12T01:52:14.106Z,0.90
2023-03-12T01:55:12.583Z,0.55
2023-03-12T01:57:49.966Z,0.55
2023-03-12T02:00:24.179Z,0.80
2023-03-12T02:03:01.729Z,0.93
2023-03-12T02:05:48.045Z,0.53
2023-03-12T02:08:17.434Z,0.60
2023-03-12T02:10:49.471Z,0.72
2023-03-12T02:13:20.816Z,0.40
2023-03-12T02:15:52.078Z,0.60
2023-03-12T02:18:22.117Z,0.55
2023-03-12T02:21:25.797Z,2.02
2023-03-12T02:24:11.180Z,0.55
2023-03-12T02:26:42.475Z,0.88
2023-03-12T02:29:13.774Z,0.57
2023-03-12T02:31:50.939Z,0.65
2023-03-12T02:34:20.041Z,1.60
2023-03-12T02:36:50.379Z,2.92
2023-03-12T02:39:19.624Z,2.72
2023-03-12T02:41:54.479Z,1.32
2023-03-12T02:44:27.385Z,0.42
2023-03-12T02:46:58.968Z,0.70
2023-03-12T02:49:32.357Z,0.72
2023-03-12T02:52:02.363Z,0.98
2023-03-12T02:54:31.855Z,1.30
2023-03-12T02:57:01.229Z,2.20
2023-03-12T02:59:31.688Z,2.05
2023-03-12T03:02:01.356Z,2.10
2023-03-12T03:04:34.456Z,1.32
2023-03-12T03:07:04.391Z,2.33
2023-03-12T03:09:34.477Z,2.30
2023-03-12T03:12:04.111Z,1.80
2023-03-12T03:14:34.761Z,2.05
2023-03-12T03:17:05.410Z,2.47
2023-03-12T03:19:35.662Z,2.22
2023-03-12T03:22:08.311Z,3.70
2023-03-12T03:24:37.288Z,2.27
2023-03-12T03:27:07.079Z,2.70
2023-03-12T03:29:37.008Z,2.65
2023-03-12T03:32:08.042Z,2.47
2023-03-12T03:34:37.584Z,3.50
2023-03-12T03:37:07.404Z,2.35
2023-03-12T03:39:36.970Z,1.92
2023-03-12T03:42:07.415Z,1.80
2023-03-12T03:44:38.023Z,2.30
2023-03-12T03:47:09.515Z,2.58
2023-03-12T03:49:39.154Z,2.37
2023-03-12T03:52:09.647Z,2.92
2023-03-12T03:54:39.941Z,3.10
2023-03-12T03:57:11.014Z,2.02
2023-03-12T03:59:45.181Z,2.62
2023-03-12T04:02:19.828Z,2.10
2023-03-12T04:04:48.919Z,2.62
2023-03-12T04:07:17.621Z,2.58
2023-03-12T04:09:46.615Z,2.60
2023-03-12T04:12:17.126Z,2.35
2023-03-12T04:14:46.523Z,2.27
2023-03-12T04:17:16.053Z,2.60
2023-03-12T04:19:45.798Z,2.62
2023-03-12T04:22:17.069Z,2.52
2023-03-12T04:24:46.462Z,3.92
2023-03-12T04:27:16.582Z,4.55
2023-03-12T04:29:48.267Z,3.65
2023-03-12T04:32:17.601Z,6.33
2023-03-12T04:34:47.010Z,4.35
2023-03-12T04:37:16.375Z,5.65
2023-03-12T04:39:47.621Z,3.58
2023-03-12T04:42:16.897Z,3.15
2023-03-12T04:44:46.079Z,4.03
2023-03-12T04:47:16.789Z,4.37
2023-03-12T04:49:46.596Z,4.30
2023-03-12T04:52:17.801Z,7.28
2023-03-12T04:54:48.109Z,4.53
2023-03-12T04:57:17.530Z,4.03
2023-03-12T04:59:47.769Z,4.35
2023-03-12T05:02:18.159Z,4.25
2023-03-12T05:04:47.196Z,4.17
2023-03-12T05:07:15.951Z,4.72
2023-03-12T05:09:46.706Z,4.00
2023-03-12T05:12:17.624Z,6.65
2023-03-12T05:14:48.593Z,4.03
2023-03-12T05:17:18.317Z,4.67
2023-03-12T05:19:49.001Z,4.30
2023-03-12T05:22:19.342Z,4.53
2023-03-12T05:24:48.449Z,5.47
2023-03-12T05:27:19.169Z,7.28
2023-03-12T05:29:49.194Z,3.60
2023-03-12T05:32:22.029Z,4.85
2023-03-12T05:34:52.539Z,3.58
2023-03-12T05:37:22.002Z,4.12
2023-03-12T05:39:51.233Z,4.00
2023-03-12T05:42:20.028Z,3.92
2023-03-12T05:44:52.240Z,6.25
2023-03-12T05:47:23.098Z,4.90
2023-03-12T05:49:55.192Z,6.15
2023-03-12T05:52:25.584Z,6.10
2023-03-12T05:54:55.085Z,4.22
2023-03-12T05:57:24.301Z,5.70
2023-03-12T05:59:53.608Z,8.55
2023-03-12T06:02:23.693Z,8.90
2023-03-12T06:04:53.421Z,9.28
2023-03-12T06:07:24.684Z,8.55
2023-03-12T06:09:55.200Z,15.90
2023-03-12T06:12:26.155Z,17.62
2023-03-12T06:14:55.097Z,15.35
2023-03-12T06:17:23.862Z,10.25
2023-03-12T06:19:53.396Z,13.13
2023-03-12T06:22:23.263Z,8.23
2023-03-12T06:24:52.733Z,6.40
2023-03-12T06:27:22.667Z,5.03
2023-03-12T06:29:52.695Z,4.87
2023-03-12T06:32:21.852Z,5.03
2023-03-12T06:34:52.717Z,5.30
2023-03-12T06:37:22.887Z,5.62
2023-03-12T06:39:52.493Z,5.87
2023-03-12T06:42:22.690Z,4.33
2023-03-12T06:44:52.101Z,6.67
2023-03-12T06:47:22.115Z,3.83
2023-03-12T06:49:51.078Z,4.97
2023-03-12T06:52:22.309Z,5.62
2023-03-12T06:54:52.164Z,5.80
2023-03-12T06:57:21.638Z,6.15
2023-03-12T06:59:51.977Z,7.22
2023-03-12T07:02:21.641Z,5.22
2023-03-12T07:04:50.836Z,3.98
2023-03-12T07:07:21.477Z,3.92
2023-03-12T07:09:54.023Z,3.62
2023-03-12T07:12:23.241Z,5.95
2023-03-12T07:14:52.463Z,11.22
2023-03-12T07:17:24.366Z,6.43
2023-03-12T07:19:54.870Z,6.67
2023-03-12T07:22:23.901Z,4.83
2023-03-12T07:24:53.342Z,5.83
2023-03-12T07:27:22.358Z,4.75
2023-03-12T07:29:52.774Z,7.28
2023-03-12T07:32:22.801Z,3.25
2023-03-12T07:34:53.203Z,3.00
2023-03-12T07:37:25.367Z,4.03
2023-03-12T07:39:55.988Z,9.25
2023-03-12T07:42:26.422Z,10.85
2023-03-12T07:44:58.842Z,10.25
2023-03-12T07:47:29.161Z,12.23
2023-03-12T07:50:00.707Z,8.93
2023-03-12T07:52:30.651Z,7.35
2023-03-12T07:55:00.914Z,4.90
2023-03-12T07:57:31.713Z,5.47
2023-03-12T08:00:01.093Z,6.33
2023-03-12T08:02:34.120Z,5.17
2023-03-12T08:05:04.848Z,3.75
2023-03-12T08:07:35.429Z,5.50
2023-03-12T08:10:07.702Z,6.72
2023-03-12T08:12:39.471Z,6.42
2023-03-12T08:15:09.634Z,5.83
2023-03-12T08:17:40.489Z,2.25
2023-03-12T08:20:11.256Z,3.02
2023-03-12T08:22:41.352Z,4.30
2023-03-12T08:25:10.663Z,2.65
2023-03-12T08:27:41.608Z,3.60
2023-03-12T08:30:13.342Z,3.20
2023-03-12T08:32:43.006Z,5.12
2023-03-12T08:35:12.159Z,5.67
2023-03-12T08:37:41.487Z,3.25
2023-03-12T08:40:13.451Z,5.60
2023-03-12T08:42:44.128Z,4.45
2023-03-12T08:45:14.018Z,8.78
2023-03-12T08:47:44.508Z,3.65
2023-03-12T08:50:16.324Z,3.50
2023-03-12T08:52:47.210Z,2.87
2023-03-12T08:55:16.415Z,5.05
2023-03-12T08:57:45.913Z,6.97
2023-03-12T09:00:19.029Z,6.65
2023-03-12T09:02:51.189Z,3.52
2023-03-12T09:05:20.795Z,7.15
2023-03-12T09:07:52.338Z,3.20
2023-03-12T09:10:23.302Z,6.90
2023-03-12T09:12:53.132Z,6.80
2023-03-12T09:15:24.225Z,3.22
2023-03-12T09:17:55.747Z,3.08
2023-03-12T09:20:26.466Z,3.33
2023-03-12T09:22:56.552Z,2.45
2023-03-12T09:25:25.850Z,2.52
2023-03-12T09:27:55.841Z,2.47
2023-03-12T09:30:26.750Z,4.33
2023-03-12T09:32:56.026Z,2.85
2023-03-12T09:35:25.414Z,3.33
2023-03-12T09:37:54.919Z,1.10
2023-03-12T09:40:26.141Z,2.50
2023-03-12T09:43:14.249Z,2.95
2023-03-12T09:45:45.364Z,4.60
2023-03-12T09:48:34.926Z,1.60
2023-03-12T09:51:39.479Z,2.27
2023-03-12T09:54:16.957Z,4.05
2023-03-12T09:56:46.117Z,2.58
2023-03-12T09:59:15.220Z,2.33
2023-03-12T10:01:54.780Z,2.00
2023-03-12T10:04:59.518Z,2.58
2023-03-12T10:07:28.493Z,3.30
2023-03-12T10:10:24.794Z,4.25
2023-03-12T10:13:20.568Z,1.92
2023-03-12T10:16:17.782Z,4.40
2023-03-12T10:19:08.875Z,2.15
2023-03-12T10:22:00.158Z,2.40
2023-03-12T10:24:52.625Z,5.15
2023-03-12T10:27:21.220Z,3.47
2023-03-12T10:29:51.653Z,3.27
2023-03-12T10:32:29.733Z,3.27
2023-03-12T10:35:21.996Z,3.08
2023-03-12T10:38:01.079Z,4.55
2023-03-12T10:40:35.488Z,3.22
2023-03-12T10:43:07.009Z,3.35
2023-03-12T10:46:07.998Z,2.50
2023-03-12T10:48:38.652Z,6.47
2023-03-12T10:51:12.957Z,3.22
2023-03-12T10:53:47.781Z,2.72
2023-03-12T10:56:20.522Z,2.83
2023-03-12T10:58:51.297Z,9.03
2023-03-12T11:01:25.629Z,2.37
2023-03-12T11:04:17.558Z,5.50
2023-03-12T11:07:17.329Z,5.35
2023-03-12T11:09:46.755Z,4.83
2023-03-12T11:12:28.962Z,2.02
2023-03-12T11:14:59.634Z,5.17
2023-03-12T11:17:29.811Z,2.75
2023-03-12T11:20:00.911Z,10.45
2023-03-12T11:22:34.743Z,6.37
2023-03-12T11:25:06.198Z,2.08
2023-03-12T11:27:46.848Z,3.33
2023-03-12T11:30:18.391Z,3.15
2023-03-12T11:32:49.534Z,4.47
2023-03-12T11:35:24.255Z,3.72
2023-03-12T11:38:11.157Z,5.05
2023-03-12T11:41:16.868Z,3.42
2023-03-12T11:44:15.598Z,5.03
2023-03-12T11:47:27.747Z,1.45
2023-03-12T11:50:21.520Z,3.25
2023-03-12T11:53:26.707Z,3.00
2023-03-12T11:56:29.610Z,4.40
2023-03-12T11:59:13.398Z,4.15
2023-03-12T12:02:03.006Z,10.78
2023-03-12T12:04:43.912Z,2.83
2023-03-12T12:07:57.165Z,4.03
2023-03-12T12:10:56.795Z,6.35
2023-03-12T12:13:47.909Z,5.30
2023-03-12T12:16:25.611Z,3.05
2023-03-12T12:19:12.639Z,4.37
2023-03-12T12:22:14.491Z,4.67
2023-03-12T12:25:06.535Z,3.72
2023-03-12T12:27:50.661Z,5.33
2023-03-12T12:31:10.940Z,3.35
2023-03-12T12:34:16.914Z,3.37
2023-03-12T12:36:52.724Z,2.37
2023-03-12T12:39:36.792Z,2.40
2023-03-12T12:42:28.854Z,3.90
2023-03-12T12:44:58.329Z,5.08
2023-03-12T12:47:39.084Z,3.12
2023-03-12T12:50:20.526Z,3.17
2023-03-12T12:52:55.017Z,3.92
2023-03-12T12:55:30.895Z,4.78
2023-03-12T12:58:05.565Z,4.08
2023-03-12T13:00:53.240Z,3.72
2023-03-12T13:03:24.246Z,3.05
2023-03-12T13:06:02.844Z,7.00
2023-03-12T13:08:44.272Z,5.95
2023-03-12T13:11:38.076Z,2.85
2023-03-12T13:14:13.627Z,3.50
2023-03-12T13:16:44.865Z,4.40
2023-03-12T13:19:24.499Z,3.58
2023-03-12T13:22:17.425Z,5.90
2023-03-12T13:25:05.003Z,4.03
2023-03-12T13:27:40.360Z,5.80
2023-03-12T13:30:37.390Z,5.53
2023-03-12T13:33:08.497Z,4.45
2023-03-12T13:35:39.175Z,6.37
2023-03-12T13:38:13.083Z,4.78
2023-03-12T13:41:02.758Z,6.20
2023-03-12T13:43:44.165Z,5.78
2023-03-12T13:46:38.147Z,8.98
2023-03-12T13:49:13.164Z,6.15
2023-03-12T13:51:49.967Z,14.85
2023-03-12T13:54:19.301Z,8.33
2023-03-12T13:57:02.571Z,6.72
2023-03-12T13:59:33.328Z,5.45
2023-03-12T14:02:06.614Z,7.87
2023-03-12T14:04:39.106Z,4.80
2023-03-12T14:07:31.782Z,6.87
2023-03-12T14:10:19.280Z,7.10
2023-03-12T14:13:11.857Z,8.98
2023-03-12T14:16:01.126Z,6.95
2023-03-12T14:18:33.241Z,6.08
2023-03-12T14:21:06.111Z,8.05
2023-03-12T14:23:40.941Z,5.28
2023-03-12T14:26:18.311Z,9.50
2023-03-12T14:28:55.569Z,7.37
2023-03-12T14:31:25.322Z,7.45
2023-03-12T14:34:21.683Z,5.60
2023-03-12T14:37:23.535Z,5.33
2023-03-12T14:40:06.514Z,5.67
2023-03-12T14:42:38.366Z,6.15
2023-03-12T14:45:13.922Z,5.95
2023-03-12T14:47:45.722Z,6.22
2023-03-12T14:50:24.795Z,8.63
2023-03-12T14:52:55.206Z,8.68
2023-03-12T14:55:26.005Z,6.53
2023-03-12T14:58:20.322Z,8.55
2023-03-12T15:01:04.153Z,12.15
2023-03-12T15:03:43.358Z,7.15
2023-03-12T15:06:20.738Z,9.90
2023-03-12T15:08:49.629Z,6.45
2023-03-12T15:11:25.488Z,8.65
2023-03-12T15:13:56.523Z,7.53
2023-03-12T15:16:28.259Z,5.03
2023-03-12T15:18:57.395Z,5.72
2023-03-12T15:21:28.333Z,5.60
2023-03-12T15:23:58.688Z,8.65
2023-03-12T15:26:32.195Z,7.83
2023-03-12T15:29:27.098Z,5.50
2023-03-12T15:31:58.945Z,7.12
2023-03-12T15:34:37.488Z,6.62
2023-03-12T15:37:35.671Z,4.62
2023-03-12T15:40:10.356Z,5.85
2023-03-12T15:42:42.421Z,6.30
2023-03-12T15:45:21.803Z,6.03
2023-03-12T15:47:53.424Z,5.97
2023-03-12T15:50:33.838Z,5.95
2023-03-12T15:53:16.562Z,6.08
2023-03-12T15:56:05.439Z,8.45
2023-03-12T15:58:37.694Z,6.05
2023-03-12T16:01:10.925Z,5.00
2023-03-12T16:03:41.668Z,7.50
2023-03-12T16:06:18.691Z,9.43
2023-03-12T16:09:01.169Z,7.53
2023-03-12T16:11:33.473Z,6.03
2023-03-12T16:14:31.568Z,7.28
2023-03-12T16:17:00.928Z,7.50
2023-03-12T16:19:30.601Z,7.45
2023-03-12T16:21:59.776Z,7.37
2023-03-12T16:24:30.511Z,5.40
2023-03-12T16:26:59.697Z,7.05
2023-03-12T16:29:36.088Z,4.62
2023-03-12T16:32:15.085Z,6.70
2023-03-12T16:34:45.750Z,4.75
2023-03-12T16:37:15.585Z,6.10
2023-03-12T16:39:46.163Z,6.87
2023-03-12T16:42:19.089Z,3.55
2023-03-12T16:44:50.435Z,3.80
2023-03-12T16:47:21.163Z,4.05
2023-03-12T16:49:49.945Z,3.50
2023-03-12T16:52:26.264Z,3.08
2023-03-12T16:54:55.082Z,3.12
2023-03-12T16:57:31.671Z,2.85
2023-03-12T17:00:01.021Z,6.53
2023-03-12T17:02:30.186Z,2.62
2023-03-12T17:05:00.423Z,3.12
2023-03-12T17:07:31.052Z,3.20
2023-03-12T17:09:59.767Z,3.10
2023-03-12T17:12:36.010Z,2.70
2023-03-12T17:15:19.610Z,5.47
2023-03-12T17:17:50.147Z,2.67
2023-03-12T17:20:20.429Z,3.62
2023-03-12T17:22:50.671Z,3.58
2023-03-12T17:25:29.094Z,2.87
2023-03-12T17:27:59.363Z,1.90
2023-03-12T17:30:29.682Z,1.82
2023-03-12T17:33:12.513Z,4.10
2023-03-12T17:35:41.653Z,3.15
2023-03-12T17:38:13.535Z,3.02
2023-03-12T17:40:43.089Z,2.47
2023-03-12T17:43:11.760Z,3.72
2023-03-12T17:45:42.890Z,3.98
2023-03-12T17:48:12.083Z,3.52
2023-03-12T17:50:41.581Z,3.25
2023-03-12T17:53:10.197Z,2.35
2023-03-12T17:55:40.311Z,5.08
2023-03-12T17:58:09.076Z,4.20
2023-03-12T18:00:38.621Z,4.25
2023-03-12T18:03:09.775Z,3.90
2023-03-12T18:05:41.071Z,3.55
2023-03-12T18:08:10.453Z,2.90
2023-03-12T18:10:40.271Z,6.45
2023-03-12T18:13:08.966Z,3.00
2023-03-12T18:15:42.668Z,3.60
2023-03-12T18:18:12.020Z,4.12
2023-03-12T18:20:41.440Z,4.62
2023-03-12T18:23:10.609Z,3.72
2023-03-12T18:25:39.499Z,8.35
2023-03-12T18:28:08.785Z,5.03
2023-03-12T18:30:37.801Z,3.87
2023-03-12T18:33:07.143Z,4.70
2023-03-12T18:35:36.345Z,4.67
2023-03-12T18:38:05.945Z,4.15
2023-03-12T18:40:36.146Z,4.25
2023-03-12T18:43:05.178Z,4.37
2023-03-12T18:45:35.042Z,5.10
2023-03-12T18:48:05.884Z,5.28
2023-03-12T18:50:34.662Z,6.33
2023-03-12T18:53:04.191Z,5.22
2023-03-12T18:55:32.913Z,5.47
2023-03-12T18:58:03.055Z,4.47
2023-03-12T19:00:31.676Z,4.70
2023-03-12T19:03:02.058Z,3.60
2023-03-12T19:05:31.202Z,6.87
2023-03-12T19:08:00.121Z,3.95
2023-03-12T19:10:29.161Z,4.15
2023-03-12T19:12:59.060Z,5.60
2023-03-12T19:15:28.062Z,3.60
2023-03-12T19:17:58.382Z,5.50
2023-03-12T19:20:27.061Z,4.67
2023-03-12T19:22:57.497Z,4.00
2023-03-12T19:25:27.843Z,6.17
2023-03-12T19:27:56.881Z,5.10
2023-03-12T19:30:27.593Z,4.37
2023-03-12T19:32:57.410Z,4.55
2023-03-12T19:35:27.051Z,4.25
2023-03-12T19:37:57.619Z,5.95
2023-03-12T19:40:29.259Z,4.85
2023-03-12T19:42:58.850Z,4.70
2023-03-12T19:45:28.495Z,7.87
2023-03-12T19:47:57.411Z,6.70
2023-03-12T19:50:26.365Z,5.05
2023-03-12T19:52:56.840Z,5.25
2023-03-12T19:55:26.124Z,4.50
2023-03-12T19:57:54.905Z,3.92
2023-03-12T20:00:24.261Z,3.80
2023-03-12T20:02:52.989Z,4.15
2023-03-12T20:05:22.421Z,6.85
2023-03-12T20:07:52.322Z,4.62
2023-03-12T20:10:23.194Z,5.00
2023-03-12T20:12:54.386Z,4.92
2023-03-12T20:15:24.934Z,3.37
2023-03-12T20:17:58.951Z,3.02
2023-03-12T20:20:27.961Z,2.08
2023-03-12T20:22:57.213Z,5.20
2023-03-12T20:25:26.760Z,1.35
2023-03-12T20:27:57.762Z,2.37
2023-03-12T20:30:28.111Z,3.67
2023-03-12T20:32:57.414Z,1.72
2023-03-12T20:35:26.373Z,0.98
2023-03-12T20:37:56.771Z,2.55
2023-03-12T20:40:25.403Z,1.85
2023-03-12T20:42:55.597Z,5.70
2023-03-12T20:45:25.814Z,2.67
2023-03-12T20:47:54.356Z,2.50
2023-03-12T20:50:26.227Z,3.37
2023-03-12T20:52:55.875Z,2.15
2023-03-12T20:55:24.475Z,2.50
2023-03-12T20:57:53.215Z,1.92
2023-03-12T21:00:23.089Z,1.35
2023-03-12T21:02:52.328Z,2.55
2023-03-12T21:05:23.844Z,2.25
2023-03-12T21:07:53.609Z,2.10
2023-03-12T21:10:22.682Z,0.90
2023-03-12T21:12:53.061Z,1.60
2023-03-12T21:15:23.981Z,2.35
2023-03-12T21:17:53.265Z,1.37
2023-03-12T21:20:23.698Z,2.60
2023-03-12T21:22:53.630Z,1.67
2023-03-12T21:25:23.288Z,2.42
2023-03-12T21:27:56.599Z,1.50
2023-03-12T21:30:25.460Z,2.30
2023-03-12T21:32:55.494Z,1.87
2023-03-12T21:35:26.495Z,2.40
2023-03-12T21:37:58.768Z,1.52
2023-03-12T21:40:27.592Z,1.00
2023-03-12T21:42:56.637Z,1.60
2023-03-12T21:45:26.432Z,2.87
2023-03-12T21:47:55.185Z,2.05
2023-03-12T21:50:25.985Z,3.02
2023-03-12T21:52:55.103Z,3.95
2023-03-12T21:55:23.654Z,2.12
2023-03-12T21:57:53.061Z,0.82
2023-03-12T22:00:24.167Z,1.32
2023-03-12T22:02:54.623Z,3.05
2023-03-12T22:05:23.298Z,2.35
2023-03-12T22:07:51.892Z,2.98
2023-03-12T22:10:20.997Z,2.72
2023-03-12T22:12:49.831Z,1.40
2023-03-12T22:15:19.469Z,2.37
2023-03-12T22:17:49.814Z,1.62
2023-03-12T22:20:19.630Z,1.30
2023-03-12T22:22:50.611Z,1.85
2023-03-12T22:25:19.815Z,5.50
2023-03-12T22:27:49.363Z,3.05
2023-03-12T22:30:18.644Z,1.75
2023-03-12T22:32:47.669Z,3.35
2023-03-12T22:35:20.051Z,3.22
2023-03-12T22:37:48.949Z,3.30
2023-03-12T22:40:18.437Z,3.52
2023-03-12T22:42:55.437Z,2.17
2023-03-12T22:45:25.232Z,2.98
2023-03-12T22:47:53.966Z,2.80
2023-03-12T22:50:23.137Z,2.85
2023-03-12T22:52:52.451Z,5.10
2023-03-12T22:55:21.251Z,1.92
2023-03-12T22:57:51.451Z,1.95
2023-03-12T23:00:23.809Z,4.90
2023-03-12T23:02:52.919Z,2.83
2023-03-12T23:05:21.662Z,2.98
2023-03-12T23:07:51.214Z,1.77
2023-03-12T23:10:21.657Z,3.45
2023-03-12T23:12:51.780Z,5.80
2023-03-12T23:15:24.570Z,1.60
2023-03-12T23:17:55.910Z,2.87
2023-03-12T23:20:25.123Z,2.67
2023-03-12T23:22:55.279Z,3.95
2023-03-12T23:25:25.648Z,2.00
2023-03-12T23:27:54.839Z,1.92
2023-03-12T23:30:26.022Z,1.70
2023-03-12T23:32:55.180Z,2.00
2023-03-12T23:35:24.568Z,2.87
2023-03-12T23:37:56.189Z,3.58
2023-03-12T23:40:25.061Z,4.22
2023-03-12T23:42:54.639Z,3.83
2023-03-12T23:45:24.210Z,3.10
2023-03-12T23:47:53.490Z,3.72
2023-03-12T23:50:22.621Z,2.10
2023-03-12T23:52:51.215Z,2.25
2023-03-12T23:55:20.162Z,2.77
2023-03-12T23:57:49.252Z,2.17
